ADDS METAR Data INFO
IDs: Format: Raw Decoded Include TAF

Data at: 0212 UTC 17 Aug 2018

PAPN 170156Z AUTO 27007KT 10SM FEW037 SCT049 OVC065 11/09 A2998 RMK AO2 WSHFT 0101 RAB03E43 SLP155 P0003 T01110089
PAPN 170121Z AUTO 22011KT 4SM RA BR FEW019 BKN037 OVC050 11/09 A2999 RMK AO2 WSHFT 0101 RAB03 P0002
PAPN 170056Z AUTO 28006KT 10SM OVC060 13/09 A2997 RMK AO2 SLP152 T01330089
PAPN 162356Z AUTO 30007KT 10SM OVC060 13/09 A2998 RMK AO2 RAB22E43 SLP153 P0000 60001 T01280089 10139 20094 58004
PAPN 162256Z AUTO 26007KT 240V300 10SM SCT022 SCT033 OVC065 13/09 A2998 RMK AO2 SLP154 T01330089
PAPN 162207Z AUTO 21004KT 10SM FEW021 BKN037 OVC065 13/08 A2999 RMK AO2
PAPN 162156Z AUTO 21005KT 10SM SCT019 BKN025 OVC065 13/09 A2999 RMK AO2 SLP156 T01280089
PAPN 162144Z AUTO 21005KT 10SM BKN019 BKN025 OVC070 13/09 A2999 RMK AO2
PAPN 162116Z AUTO 22005KT 10SM FEW016 SCT028 OVC070 12/09 A2998 RMK AO2
PAPN 162056Z AUTO 22006KT 10SM BKN016 BKN022 OVC026 12/09 A2999 RMK AO2 SLP157 60001 T01220094 54000
PAPN 162045Z AUTO 23007KT 10SM BKN014 OVC022 12/09 A2999 RMK AO2
PAPN 162029Z AUTO VRB04KT 10SM SCT012 BKN018 OVC065 12/09 A2999 RMK AO2
PAPN 162010Z AUTO 16006KT 10SM OVC011 11/09 A2999 RMK AO2
PAPN 161956Z AUTO 19005KT 10SM OVC009 11/09 A2999 RMK AO2 RAE35 CIG 007V014 SLP157 P0001 T01110094
PAPN 161856Z AUTO 16003KT 10SM -RA OVC007 10/09 A2999 RMK AO2 RAE05B51 CIG 006V011 SLP157 P0000 T01000089
PAPN 161839Z AUTO 17003KT 10SM OVC007 10/09 A2999 RMK AO2 RAE05 CIG 004V011 P0000
PAPN 161825Z AUTO 16004KT 10SM BKN005 OVC015 10/09 A2999 RMK AO2 RAE05 CIG 004V008 P0000
PAPN 161805Z AUTO 16004KT 10SM SCT005 OVC015 10/09 A2999 RMK AO2 RAE05 P0000
PAPN 161756Z AUTO 18004KT 4SM -RA BR BKN005 OVC013 09/09 A2999 RMK AO2 RAB1659E27B45 SLP157 P0001 60001 T00940094 10100 20083 52002
PAPN 161740Z AUTO 15005KT 6SM BR OVC005 09/09 A2999 RMK AO2 RAB1659E27 CIG 003V007 P0000
PAPN 161732Z AUTO 15005KT 10SM OVC007 10/09 A2999 RMK AO2 RAB1659E27 CIG 003V009 P0000
PAPN 161722Z AUTO 15004KT 7SM -RA OVC005 09/09 A2999 RMK AO2 RAB1659 CIG 003V010 P0000
PAPN 161706Z AUTO 00000KT 2SM -RA BR BKN003 OVC012 09/09 A2999 RMK AO2 VIS 1 1/4V5 RAB1659 P0000
PAPN 161656Z AUTO 10003KT 7SM FEW003 OVC012 09/09 A2999 RMK AO2 RAE34 SLP157 P0000 T00940094
PAPN 161637Z AUTO 10003KT 9SM FEW007 OVC014 09/09 A2999 RMK AO2 RAE34 P0000
PAPN 161626Z AUTO 11003KT 10SM -RA OVC014 09/09 A2999 RMK AO2 P0000
PAPN 161556Z AUTO 10003KT 10SM -RA OVC016 09/09 A2998 RMK AO2 RAB50 SLP155 P0000 T00890089
PAPN 161538Z AUTO 12004KT 10SM BKN018 OVC050 09/08 A2998 RMK AO2
PAPN 161456Z AUTO 12004KT 10SM SCT023 SCT037 OVC050 09/08 A2998 RMK AO2 SLP155 T00890083 50000
PAPN 161356Z AUTO 07003KT 10SM OVC017 09/08 A2998 RMK AO2 SLP155 T00890083
PAPN 161256Z AUTO 05004KT 10SM OVC017 09/08 A2998 RMK AO2 SLP155 T00890083
PAPN 161209Z AUTO 05003KT 9SM BKN015 OVC041 09/08 A2998 RMK AO2
PAPN 161156Z AUTO 04003KT 10SM FEW015 BKN041 OVC055 08/08 A2998 RMK AO2 SLP155 70010 T00830078 10106 20083 51002
PAPN 161148Z AUTO 02004KT 9SM SCT023 BKN041 OVC055 09/08 A2998 RMK AO2
PAPN 161104Z AUTO 35004KT 10SM BKN021 OVC037 09/09 A2998 RMK AO2
PAPN 161056Z AUTO 34004KT 10SM FEW018 BKN039 OVC055 09/08 A2998 RMK AO2 SLP154 T00940083
PAPN 160956Z AUTO 00000KT 10SM BKN027 OVC032 10/09 A2998 RMK AO2 SLP154 T01000089
PAPN 160948Z AUTO 00000KT 10SM BKN027 OVC035 10/09 A2998 RMK AO2
PAPN 160856Z AUTO 00000KT 10SM OVC036 09/08 A2998 RMK AO2 SLP153 T00940083 50003
PAPN 160756Z AUTO 00000KT 10SM OVC036 09/08 A2998 RMK AO2 SLP154 T00940083 401170089
PAPN 160656Z AUTO 01004KT 10SM BKN040 OVC050 10/09 A2997 RMK AO2 SLP151 T01000089
PAPN 160556Z AUTO 33005KT 10SM BKN042 OVC050 11/09 A2997 RMK AO2 SLP149 60000 T01060089 10117 20106 53004
PAPN 160456Z AUTO 33004KT 10SM BKN040 OVC047 11/08 A2996 RMK AO2 SLP146 T01110083
PAPN 160356Z AUTO 30005KT 10SM BKN048 OVC060 12/08 A2995 RMK AO2 RAB15E41 SLP145 P0000 T01170083
PAPN 160256Z AUTO 30004KT 10SM BKN042 OVC055 12/08 A2995 RMK AO2 SLP145 T01170083 56003
PAPN 160156Z AUTO 30007KT 10SM BKN041 BKN055 OVC070 12/08 A2995 RMK AO2 SLP145 T01170083
PAPN 160056Z AUTO 30008KT 10SM OVC041 11/08 A2996 RMK AO2 SLP146 T01110078
PAPN 152356Z AUTO 30007KT 10SM FEW026 SCT045 OVC055 11/08 A2996 RMK AO2 RAE19 SLP148 P0000 60000 T01110083 10117 20094 56003
PAPN 152351Z AUTO 29007KT 10SM FEW026 BKN045 OVC055 12/08 A2996 RMK AO2 RAE19 P0000
PAPN 152323Z AUTO 29006KT 10SM BKN026 OVC035 11/08 A2997 RMK AO2 RAE19 P0000
PAPN 152256Z AUTO 29004KT 10SM -RA SCT029 SCT034 OVC044 11/08 A2997 RMK AO2 RAB03 SLP151 P0000 T01110078
PAPN 152156Z AUTO 24005KT 9SM OVC065 11/08 A2997 RMK AO2 SLP151 T01110078
PAPN 152056Z AUTO 24005KT 10SM FEW017 OVC050 11/08 A2997 RMK AO2 SLP151 60000 T01110083 58002
PAPN 151956Z AUTO 21006KT 10SM SCT010 BKN049 OVC060 11/09 A2998 RMK AO2 RAE17 SLP153 P0000 T01060089
PAPN 151916Z AUTO 21006KT 10SM -RA SCT006 BKN048 OVC065 10/08 A2998 RMK AO2 P0000
PAPN 151830Z AUTO 22008KT 9SM -RA BKN006 OVC055 09/09 A2998 RMK AO2 CIG 004V011 P0000
PAPN 151756Z AUTO 21009KT 9SM -RA BKN004 OVC060 09/09 A2998 RMK AO2 RAB39 SLP153 P0001 60010 T00940089 10094 20089 51002
PAPN 151743Z AUTO 21008KT 10SM -RA BKN004 BKN035 OVC060 09/09 A2998 RMK AO2 RAB39 P0001
PAPN 151735Z AUTO 21007KT 10SM SCT004 BKN033 OVC060 09/09 A2998 RMK AO2 P0001
PAPN 151656Z AUTO 20007KT 10SM BKN004 OVC060 09/08 A2998 RMK AO2 RAB05E18 SLP153 P0000 T00890083
PAPN 151556Z AUTO 21006KT 8SM BKN004 BKN013 OVC048 09/08 A2997 RMK AO2 RAE01B25E49 SLP151 P0000 T00890083
PAPN 151456Z AUTO 22009KT 6SM -RA BR BKN004 BKN012 OVC040 09/08 A2998 RMK AO2 CIG 004V008 SLP153 P0002 60009 T00890083 57006
PAPN 151431Z AUTO 21009KT 4SM -RA BR BKN004 OVC012 09/08 A2998 RMK AO2 P0001
PAPN 151424Z AUTO 22009KT 4SM -RA BR SCT004 OVC012 09/08 A2998 RMK AO2 P0001